sensor_id;sensor_type;location;lat;lon;timestamp;temperature;humidity
21648;DHT22;10985;54.182;7.890;2022-10-16T10:06:35;15.60;99.90
21648;DHT22;10985;54.182;7.890;2022-10-16T10:09:04;15.70;99.90
21648;DHT22;10985;54.182;7.890;2022-10-16T10:14:25;16.00;99.90
21648;DHT22;10985;54.182;7.890;2022-10-16T10:17:00;16.30;99.90
21648;DHT22;10985;54.182;7.890;2022-10-16T10:19:27;16.40;99.90
21648;DHT22;10985;54.182;7.890;2022-10-16T10:21:52;16.70;99.90
21648;DHT22;10985;54.182;7.890;2022-10-16T10:24:19;16.90;99.90
21648;DHT22;10985;54.182;7.890;2022-10-16T10:27:04;17.10;99.90
21648;DHT22;10985;54.182;7.890;2022-10-16T10:29:47;17.30;99.90
21648;DHT22;10985;54.182;7.890;2022-10-16T10:37:40;17.90;99.90
21648;DHT22;10985;54.182;7.890;2022-10-16T10:43:23;18.50;99.90
21648;DHT22;10985;54.182;7.890;2022-10-16T10:45:59;18.80;99.90
21648;DHT22;10985;54.182;7.890;2022-10-16T10:48:54;19.00;99.90
21648;DHT22;10985;54.182;7.890;2022-10-16T10:54:53;19.40;99.90
21648;DHT22;10985;54.182;7.890;2022-10-16T10:57:50;19.40;99.90
21648;DHT22;10985;54.182;7.890;2022-10-16T11:00:28;19.40;99.90
21648;DHT22;10985;54.182;7.890;2022-10-16T11:05:45;19.70;99.90
21648;DHT22;10985;54.182;7.890;2022-10-16T11:13:58;20.10;99.90
21648;DHT22;10985;54.182;7.890;2022-10-16T11:16:37;20.20;99.90
21648;DHT22;10985;54.182;7.890;2022-10-16T11:19:45;20.40;99.90
21648;DHT22;10985;54.182;7.890;2022-10-16T11:22:36;20.60;99.90
21648;DHT22;10985;54.182;7.890;2022-10-16T11:25:11;20.70;99.90
21648;DHT22;10985;54.182;7.890;2022-10-16T11:27:43;21.00;99.90
21648;DHT22;10985;54.182;7.890;2022-10-16T11:30:31;21.20;99.90
21648;DHT22;10985;54.182;7.890;2022-10-16T11:33:29;21.10;99.90
21648;DHT22;10985;54.182;7.890;2022-10-16T11:41:28;20.70;99.90
21648;DHT22;10985;54.182;7.890;2022-10-16T11:47:23;20.70;99.90
21648;DHT22;10985;54.182;7.890;2022-10-16T11:49:55;20.80;99.90
21648;DHT22;10985;54.182;7.890;2022-10-16T11:52:48;20.70;99.90
21648;DHT22;10985;54.182;7.890;2022-10-16T11:55:20;20.80;99.90
21648;DHT22;10985;54.182;7.890;2022-10-16T11:57:52;20.90;99.90
21648;DHT22;10985;54.182;7.890;2022-10-16T12:00:40;21.10;99.90
21648;DHT22;10985;54.182;7.890;2022-10-16T12:03:21;21.30;99.90
21648;DHT22;10985;54.182;7.890;2022-10-16T12:08:37;21.70;99.90
21648;DHT22;10985;54.182;7.890;2022-10-16T12:11:23;21.90;99.90
21648;DHT22;10985;54.182;7.890;2022-10-16T12:13:49;22.10;99.90
21648;DHT22;10985;54.182;7.890;2022-10-16T12:18:44;22.10;99.90
21648;DHT22;10985;54.182;7.890;2022-10-16T12:21:12;22.40;99.90
21648;DHT22;10985;54.182;7.890;2022-10-16T12:23:55;22.70;99.90
21648;DHT22;10985;54.182;7.890;2022-10-16T12:26:30;22.70;99.90
21648;DHT22;10985;54.182;7.890;2022-10-16T12:31:43;23.20;99.90
21648;DHT22;10985;54.182;7.890;2022-10-16T12:34:37;22.90;99.90
21648;DHT22;10985;54.182;7.890;2022-10-16T12:37:14;22.90;99.90
21648;DHT22;10985;54.182;7.890;2022-10-16T12:39:40;23.00;99.90
21648;DHT22;10985;54.182;7.890;2022-10-16T12:44:52;23.10;99.90
21648;DHT22;10985;54.182;7.890;2022-10-16T12:47:34;23.00;99.90
21648;DHT22;10985;54.182;7.890;2022-10-16T12:50:00;23.40;99.90
21648;DHT22;10985;54.182;7.890;2022-10-16T12:52:39;23.60;99.90
21648;DHT22;10985;54.182;7.890;2022-10-16T12:55:06;23.70;99.90
21648;DHT22;10985;54.182;7.890;2022-10-16T12:57:59;23.70;99.90
21648;DHT22;10985;54.182;7.890;2022-10-16T13:00:32;23.80;99.90
21648;DHT22;10985;54.182;7.890;2022-10-16T13:03:31;24.10;99.90
21648;DHT22;10985;54.182;7.890;2022-10-16T13:06:29;24.20;99.90
21648;DHT22;10985;54.182;7.890;2022-10-16T13:14:56;24.50;99.90
21648;DHT22;10985;54.182;7.890;2022-10-16T13:22:54;24.20;99.90
21648;DHT22;10985;54.182;7.890;2022-10-16T13:26:01;24.20;99.90
21648;DHT22;10985;54.182;7.890;2022-10-16T13:28:32;23.90;99.90
21648;DHT22;10985;54.182;7.890;2022-10-16T13:31:00;23.70;99.90
21648;DHT22;10985;54.182;7.890;2022-10-16T13:33:37;23.40;99.90
21648;DHT22;10985;54.182;7.890;2022-10-16T13:36:05;23.20;99.90
21648;DHT22;10985;54.182;7.890;2022-10-16T13:38:33;23.10;99.90
21648;DHT22;10985;54.182;7.890;2022-10-16T13:41:01;22.80;99.90
21648;DHT22;10985;54.182;7.890;2022-10-16T13:43:48;22.60;99.90
21648;DHT22;10985;54.182;7.890;2022-10-16T13:46:20;22.20;99.90
21648;DHT22;10985;54.182;7.890;2022-10-16T13:49:15;21.80;99.90
21648;DHT22;10985;54.182;7.890;2022-10-16T13:51:41;21.30;99.90
21648;DHT22;10985;54.182;7.890;2022-10-16T13:54:09;20.90;99.90
21648;DHT22;10985;54.182;7.890;2022-10-16T13:56:36;20.50;99.90
21648;DHT22;10985;54.182;7.890;2022-10-16T13:59:06;20.20;99.90
21648;DHT22;10985;54.182;7.890;2022-10-16T14:01:34;20.10;99.90
21648;DHT22;10985;54.182;7.890;2022-10-16T14:04:09;19.70;99.90
21648;DHT22;10985;54.182;7.890;2022-10-16T14:06:36;19.50;99.90
21648;DHT22;10985;54.182;7.890;2022-10-16T14:09:14;19.30;99.90
21648;DHT22;10985;54.182;7.890;2022-10-16T14:11:50;19.00;99.90
21648;DHT22;10985;54.182;7.890;2022-10-16T14:14:17;18.70;99.90
21648;DHT22;10985;54.182;7.890;2022-10-16T14:16:43;18.40;99.90
21648;DHT22;10985;54.182;7.890;2022-10-16T14:19:35;18.20;99.90
21648;DHT22;10985;54.182;7.890;2022-10-16T14:22:01;18.00;99.90
21648;DHT22;10985;54.182;7.890;2022-10-16T14:26:56;17.70;99.90
21648;DHT22;10985;54.182;7.890;2022-10-16T14:29:23;17.60;99.90
21648;DHT22;10985;54.182;7.890;2022-10-16T14:31:56;17.40;99.90
21648;DHT22;10985;54.182;7.890;2022-10-16T14:34:27;17.40;99.90
21648;DHT22;10985;54.182;7.890;2022-10-16T14:36:54;17.20;99.90
21648;DHT22;10985;54.182;7.890;2022-10-16T14:39:21;17.10;99.90
21648;DHT22;10985;54.182;7.890;2022-10-16T14:41:49;17.00;99.90
21648;DHT22;10985;54.182;7.890;2022-10-16T14:44:17;16.90;99.90
21648;DHT22;10985;54.182;7.890;2022-10-16T14:46:44;16.80;99.90
21648;DHT22;10985;54.182;7.890;2022-10-16T14:51:40;16.70;99.90
21648;DHT22;10985;54.182;7.890;2022-10-16T14:54:12;16.60;99.90
21648;DHT22;10985;54.182;7.890;2022-10-16T14:56:52;16.60;99.90
21648;DHT22;10985;54.182;7.890;2022-10-16T14:59:50;16.60;99.90
21648;DHT22;10985;54.182;7.890;2022-10-16T15:02:29;16.40;99.90
21648;DHT22;10985;54.182;7.890;2022-10-16T15:04:56;16.40;99.90
21648;DHT22;10985;54.182;7.890;2022-10-16T15:07:22;16.30;99.90
21648;DHT22;10985;54.182;7.890;2022-10-16T15:09:47;16.30;99.90
21648;DHT22;10985;54.182;7.890;2022-10-16T15:12:13;16.30;99.90
21648;DHT22;10985;54.182;7.890;2022-10-16T15:14:38;16.20;99.90
21648;DHT22;10985;54.182;7.890;2022-10-16T15:17:04;16.10;99.90
21648;DHT22;10985;54.182;7.890;2022-10-16T15:19:30;16.10;99.90
21648;DHT22;10985;54.182;7.890;2022-10-16T15:21:56;16.10;99.90
21648;DHT22;10985;54.182;7.890;2022-10-16T15:24:21;16.10;99.90
21648;DHT22;10985;54.182;7.890;2022-10-16T15:26:47;16.00;99.90
21648;DHT22;10985;54.182;7.890;2022-10-16T15:29:13;15.90;99.90
21648;DHT22;10985;54.182;7.890;2022-10-16T15:31:38;15.90;99.90
21648;DHT22;10985;54.182;7.890;2022-10-16T15:34:09;15.80;99.90
21648;DHT22;10985;54.182;7.890;2022-10-16T15:36:36;15.70;99.90
21648;DHT22;10985;54.182;7.890;2022-10-16T15:39:03;15.70;99.90
21648;DHT22;10985;54.182;7.890;2022-10-16T15:41:29;15.70;99.90
21648;DHT22;10985;54.182;7.890;2022-10-16T15:43:54;15.70;99.90
21648;DHT22;10985;54.182;7.890;2022-10-16T15:46:22;15.60;99.90
21648;DHT22;10985;54.182;7.890;2022-10-16T15:48:48;15.60;99.90
21648;DHT22;10985;54.182;7.890;2022-10-16T15:51:14;15.60;99.90
21648;DHT22;10985;54.182;7.890;2022-10-16T15:53:40;15.50;99.90
21648;DHT22;10985;54.182;7.890;2022-10-16T15:56:08;15.50;99.90
21648;DHT22;10985;54.182;7.890;2022-10-16T15:58:34;15.50;99.90
21648;DHT22;10985;54.182;7.890;2022-10-16T16:01:00;15.40;99.90
21648;DHT22;10985;54.182;7.890;2022-10-16T16:03:27;15.30;99.90
21648;DHT22;10985;54.182;7.890;2022-10-16T16:05:53;15.30;99.90
21648;DHT22;10985;54.182;7.890;2022-10-16T16:08:19;15.30;99.90
21648;DHT22;10985;54.182;7.890;2022-10-16T16:10:44;15.30;99.90
21648;DHT22;10985;54.182;7.890;2022-10-16T16:13:10;15.20;99.90
21648;DHT22;10985;54.182;7.890;2022-10-16T16:15:39;15.20;99.90
21648;DHT22;10985;54.182;7.890;2022-10-16T16:18:04;15.20;99.90
21648;DHT22;10985;54.182;7.890;2022-10-16T16:20:31;15.20;99.90
21648;DHT22;10985;54.182;7.890;2022-10-16T16:22:56;15.20;99.90
21648;DHT22;10985;54.182;7.890;2022-10-16T16:25:22;15.20;99.90
21648;DHT22;10985;54.182;7.890;2022-10-16T16:27:48;15.10;99.90
21648;DHT22;10985;54.182;7.890;2022-10-16T16:30:13;15.10;99.90
21648;DHT22;10985;54.182;7.890;2022-10-16T16:32:39;15.10;99.90
21648;DHT22;10985;54.182;7.890;2022-10-16T16:35:05;15.00;99.90
21648;DHT22;10985;54.182;7.890;2022-10-16T16:37:31;15.00;99.90
21648;DHT22;10985;54.182;7.890;2022-10-16T16:39:56;15.00;99.90
21648;DHT22;10985;54.182;7.890;2022-10-16T16:42:24;15.00;99.90
21648;DHT22;10985;54.182;7.890;2022-10-16T16:44:50;14.90;99.90
21648;DHT22;10985;54.182;7.890;2022-10-16T16:47:16;14.90;99.90
21648;DHT22;10985;54.182;7.890;2022-10-16T16:49:41;14.90;99.90
21648;DHT22;10985;54.182;7.890;2022-10-16T16:52:07;14.90;99.90
21648;DHT22;10985;54.182;7.890;2022-10-16T16:54:32;14.90;99.90
21648;DHT22;10985;54.182;7.890;2022-10-16T16:56:58;14.90;99.90
21648;DHT22;10985;54.182;7.890;2022-10-16T16:59:23;14.90;99.90
21648;DHT22;10985;54.182;7.890;2022-10-16T17:01:49;14.90;99.90
21648;DHT22;10985;54.182;7.890;2022-10-16T17:04:15;14.90;99.90
21648;DHT22;10985;54.182;7.890;2022-10-16T17:06:41;14.90;99.90
21648;DHT22;10985;54.182;7.890;2022-10-16T17:09:07;14.80;99.90
21648;DHT22;10985;54.182;7.890;2022-10-16T17:11:33;14.90;99.90
21648;DHT22;10985;54.182;7.890;2022-10-16T17:14:00;14.80;99.90
21648;DHT22;10985;54.182;7.890;2022-10-16T17:16:34;14.80;99.90
21648;DHT22;10985;54.182;7.890;2022-10-16T17:19:02;14.80;99.90
21648;DHT22;10985;54.182;7.890;2022-10-16T17:21:28;14.80;99.90
21648;DHT22;10985;54.182;7.890;2022-10-16T17:23:55;14.80;99.90
21648;DHT22;10985;54.182;7.890;2022-10-16T17:26:21;14.80;99.90
21648;DHT22;10985;54.182;7.890;2022-10-16T17:28:50;14.70;99.90
21648;DHT22;10985;54.182;7.890;2022-10-16T17:31:19;14.70;99.90
21648;DHT22;10985;54.182;7.890;2022-10-16T17:33:45;14.70;99.90
21648;DHT22;10985;54.182;7.890;2022-10-16T17:36:11;14.70;99.90
21648;DHT22;10985;54.182;7.890;2022-10-16T17:38:39;14.70;99.90
21648;DHT22;10985;54.182;7.890;2022-10-16T17:41:13;14.70;99.90
21648;DHT22;10985;54.182;7.890;2022-10-16T17:43:39;14.70;99.90
21648;DHT22;10985;54.182;7.890;2022-10-16T17:46:06;14.70;99.90
21648;DHT22;10985;54.182;7.890;2022-10-16T17:48:39;14.70;99.90
21648;DHT22;10985;54.182;7.890;2022-10-16T17:51:06;14.60;99.90
21648;DHT22;10985;54.182;7.890;2022-10-16T17:53:32;14.70;99.90
21648;DHT22;10985;54.182;7.890;2022-10-16T17:56:02;14.70;99.90
21648;DHT22;10985;54.182;7.890;2022-10-16T17:58:28;14.60;99.90
21648;DHT22;10985;54.182;7.890;2022-10-16T18:00:53;14.60;99.90
21648;DHT22;10985;54.182;7.890;2022-10-16T18:03:19;14.60;99.90
21648;DHT22;10985;54.182;7.890;2022-10-16T18:05:44;14.60;99.90
21648;DHT22;10985;54.182;7.890;2022-10-16T18:08:10;14.60;99.90
21648;DHT22;10985;54.182;7.890;2022-10-16T18:10:35;14.60;99.90
21648;DHT22;10985;54.182;7.890;2022-10-16T18:13:01;14.50;99.90
21648;DHT22;10985;54.182;7.890;2022-10-16T18:15:26;14.60;99.90
21648;DHT22;10985;54.182;7.890;2022-10-16T18:17:52;14.50;99.90
21648;DHT22;10985;54.182;7.890;2022-10-16T18:20:19;14.60;99.90
21648;DHT22;10985;54.182;7.890;2022-10-16T18:22:45;14.60;99.90
21648;DHT22;10985;54.182;7.890;2022-10-16T18:25:10;14.60;99.90
21648;DHT22;10985;54.182;7.890;2022-10-16T18:27:36;14.60;99.90
21648;DHT22;10985;54.182;7.890;2022-10-16T18:30:01;14.50;99.90
21648;DHT22;10985;54.182;7.890;2022-10-16T18:32:27;14.50;99.90
21648;DHT22;10985;54.182;7.890;2022-10-16T18:34:53;14.50;99.90
21648;DHT22;10985;54.182;7.890;2022-10-16T18:37:19;14.50;99.90
21648;DHT22;10985;54.182;7.890;2022-10-16T18:39:48;14.50;99.90
21648;DHT22;10985;54.182;7.890;2022-10-16T18:42:18;14.50;99.90
21648;DHT22;10985;54.182;7.890;2022-10-16T18:44:43;14.50;99.90
21648;DHT22;10985;54.182;7.890;2022-10-16T18:47:09;14.60;99.90
21648;DHT22;10985;54.182;7.890;2022-10-16T18:49:35;14.50;99.90
21648;DHT22;10985;54.182;7.890;2022-10-16T18:52:00;14.50;99.90
21648;DHT22;10985;54.182;7.890;2022-10-16T18:54:28;14.50;99.90
21648;DHT22;10985;54.182;7.890;2022-10-16T18:56:53;14.50;99.90
21648;DHT22;10985;54.182;7.890;2022-10-16T18:59:19;14.50;99.90
21648;DHT22;10985;54.182;7.890;2022-10-16T19:01:48;14.50;99.90
21648;DHT22;10985;54.182;7.890;2022-10-16T19:04:15;14.50;99.90
21648;DHT22;10985;54.182;7.890;2022-10-16T19:06:44;14.50;99.90
21648;DHT22;10985;54.182;7.890;2022-10-16T19:09:11;14.50;99.90
21648;DHT22;10985;54.182;7.890;2022-10-16T19:11:37;14.50;99.90
21648;DHT22;10985;54.182;7.890;2022-10-16T19:14:03;14.40;99.90
21648;DHT22;10985;54.182;7.890;2022-10-16T19:16:31;14.50;99.90
21648;DHT22;10985;54.182;7.890;2022-10-16T19:18:59;14.40;99.90
21648;DHT22;10985;54.182;7.890;2022-10-16T19:21:26;14.50;99.90
21648;DHT22;10985;54.182;7.890;2022-10-16T19:23:56;14.50;99.90
21648;DHT22;10985;54.182;7.890;2022-10-16T19:26:24;14.50;99.90
21648;DHT22;10985;54.182;7.890;2022-10-16T19:28:50;14.40;99.90
21648;DHT22;10985;54.182;7.890;2022-10-16T19:31:20;14.50;99.90
21648;DHT22;10985;54.182;7.890;2022-10-16T19:33:46;14.40;99.90
21648;DHT22;10985;54.182;7.890;2022-10-16T19:36:23;14.40;99.90
21648;DHT22;10985;54.182;7.890;2022-10-16T19:38:56;14.40;99.90
21648;DHT22;10985;54.182;7.890;2022-10-16T19:41:22;14.40;99.90
21648;DHT22;10985;54.182;7.890;2022-10-16T19:43:48;14.40;99.90
21648;DHT22;10985;54.182;7.890;2022-10-16T19:46:16;14.40;99.90
21648;DHT22;10985;54.182;7.890;2022-10-16T19:48:43;14.50;99.90
21648;DHT22;10985;54.182;7.890;2022-10-16T19:51:17;14.40;99.90
21648;DHT22;10985;54.182;7.890;2022-10-16T19:53:44;14.40;99.90
21648;DHT22;10985;54.182;7.890;2022-10-16T19:56:15;14.40;99.90
21648;DHT22;10985;54.182;7.890;2022-10-16T19:58:42;14.40;99.90
21648;DHT22;10985;54.182;7.890;2022-10-16T20:01:08;14.40;99.90
21648;DHT22;10985;54.182;7.890;2022-10-16T20:03:33;14.40;99.90
21648;DHT22;10985;54.182;7.890;2022-10-16T20:06:00;14.40;99.90
21648;DHT22;10985;54.182;7.890;2022-10-16T20:08:30;14.40;99.90
21648;DHT22;10985;54.182;7.890;2022-10-16T20:10:56;14.40;99.90
21648;DHT22;10985;54.182;7.890;2022-10-16T20:13:22;14.40;99.90
21648;DHT22;10985;54.182;7.890;2022-10-16T20:15:48;14.40;99.90
21648;DHT22;10985;54.182;7.890;2022-10-16T20:18:14;14.40;99.90
21648;DHT22;10985;54.182;7.890;2022-10-16T20:20:43;14.40;99.90
21648;DHT22;10985;54.182;7.890;2022-10-16T20:23:09;14.40;99.90
21648;DHT22;10985;54.182;7.890;2022-10-16T20:25:40;14.40;99.90
21648;DHT22;10985;54.182;7.890;2022-10-16T20:28:08;14.30;99.90
21648;DHT22;10985;54.182;7.890;2022-10-16T20:30:35;14.30;99.90
21648;DHT22;10985;54.182;7.890;2022-10-16T20:33:00;14.30;99.90
21648;DHT22;10985;54.182;7.890;2022-10-16T20:35:26;14.30;99.90
21648;DHT22;10985;54.182;7.890;2022-10-16T20:37:52;14.30;99.90
21648;DHT22;10985;54.182;7.890;2022-10-16T20:40:17;14.30;99.90
21648;DHT22;10985;54.182;7.890;2022-10-16T20:42:43;14.30;99.90
21648;DHT22;10985;54.182;7.890;2022-10-16T20:45:08;14.30;99.90
21648;DHT22;10985;54.182;7.890;2022-10-16T20:47:34;14.30;99.90
21648;DHT22;10985;54.182;7.890;2022-10-16T20:49:59;14.30;99.90
21648;DHT22;10985;54.182;7.890;2022-10-16T20:52:25;14.20;99.90
21648;DHT22;10985;54.182;7.890;2022-10-16T20:54:51;14.30;99.90
21648;DHT22;10985;54.182;7.890;2022-10-16T20:57:16;14.30;99.90
21648;DHT22;10985;54.182;7.890;2022-10-16T20:59:42;14.30;99.90
21648;DHT22;10985;54.182;7.890;2022-10-16T21:02:10;14.20;99.90
21648;DHT22;10985;54.182;7.890;2022-10-16T21:04:37;14.20;99.90
21648;DHT22;10985;54.182;7.890;2022-10-16T21:07:02;14.20;99.90
21648;DHT22;10985;54.182;7.890;2022-10-16T21:09:28;14.20;99.90
21648;DHT22;10985;54.182;7.890;2022-10-16T21:11:53;14.20;99.90
21648;DHT22;10985;54.182;7.890;2022-10-16T21:14:19;14.20;99.90
21648;DHT22;10985;54.182;7.890;2022-10-16T21:16:46;14.20;99.90
21648;DHT22;10985;54.182;7.890;2022-10-16T21:19:11;14.20;99.90
21648;DHT22;10985;54.182;7.890;2022-10-16T21:21:37;14.20;99.90
21648;DHT22;10985;54.182;7.890;2022-10-16T21:24:03;14.20;99.90
21648;DHT22;10985;54.182;7.890;2022-10-16T21:26:30;14.20;99.90
21648;DHT22;10985;54.182;7.890;2022-10-16T21:29:01;14.20;99.90
21648;DHT22;10985;54.182;7.890;2022-10-16T21:31:27;14.10;99.90
21648;DHT22;10985;54.182;7.890;2022-10-16T21:33:53;14.10;99.90
21648;DHT22;10985;54.182;7.890;2022-10-16T21:36:24;14.10;99.90
21648;DHT22;10985;54.182;7.890;2022-10-16T21:38:51;14.10;99.90
21648;DHT22;10985;54.182;7.890;2022-10-16T21:43:42;14.20;99.90
21648;DHT22;10985;54.182;7.890;2022-10-16T21:46:08;14.10;99.90
21648;DHT22;10985;54.182;7.890;2022-10-16T21:48:34;14.10;99.90
21648;DHT22;10985;54.182;7.890;2022-10-16T21:50:59;14.10;99.90
21648;DHT22;10985;54.182;7.890;2022-10-16T21:53:25;14.10;99.90
21648;DHT22;10985;54.182;7.890;2022-10-16T21:55:50;14.10;99.90
21648;DHT22;10985;54.182;7.890;2022-10-16T21:58:16;14.10;99.90
21648;DHT22;10985;54.182;7.890;2022-10-16T22:00:41;14.10;99.90
21648;DHT22;10985;54.182;7.890;2022-10-16T22:03:07;14.10;99.90
21648;DHT22;10985;54.182;7.890;2022-10-16T22:05:33;14.10;99.90
21648;DHT22;10985;54.182;7.890;2022-10-16T22:07:58;14.10;99.90
21648;DHT22;10985;54.182;7.890;2022-10-16T22:10:24;14.10;99.90
21648;DHT22;10985;54.182;7.890;2022-10-16T22:12:49;14.10;99.90
21648;DHT22;10985;54.182;7.890;2022-10-16T22:15:15;14.00;99.90
21648;DHT22;10985;54.182;7.890;2022-10-16T22:17:40;14.00;99.90
21648;DHT22;10985;54.182;7.890;2022-10-16T22:20:06;14.00;99.90
21648;DHT22;10985;54.182;7.890;2022-10-16T22:22:32;14.00;99.90
21648;DHT22;10985;54.182;7.890;2022-10-16T22:24:57;14.00;99.90
21648;DHT22;10985;54.182;7.890;2022-10-16T22:27:23;14.00;99.90
21648;DHT22;10985;54.182;7.890;2022-10-16T22:29:52;14.00;99.90
21648;DHT22;10985;54.182;7.890;2022-10-16T22:32:18;14.00;99.90
21648;DHT22;10985;54.182;7.890;2022-10-16T22:34:43;13.90;99.90
21648;DHT22;10985;54.182;7.890;2022-10-16T22:37:09;14.00;99.90
21648;DHT22;10985;54.182;7.890;2022-10-16T22:39:34;13.90;99.90
21648;DHT22;10985;54.182;7.890;2022-10-16T22:42:00;13.90;99.90
21648;DHT22;10985;54.182;7.890;2022-10-16T22:44:28;13.90;99.90
21648;DHT22;10985;54.182;7.890;2022-10-16T22:46:54;13.90;99.90
21648;DHT22;10985;54.182;7.890;2022-10-16T22:49:20;13.90;99.90
21648;DHT22;10985;54.182;7.890;2022-10-16T22:51:46;13.90;99.90
21648;DHT22;10985;54.182;7.890;2022-10-16T22:54:11;13.90;99.90
21648;DHT22;10985;54.182;7.890;2022-10-16T22:56:37;13.90;99.90
21648;DHT22;10985;54.182;7.890;2022-10-16T22:59:03;13.90;99.90
21648;DHT22;10985;54.182;7.890;2022-10-16T23:01:35;13.90;99.90
21648;DHT22;10985;54.182;7.890;2022-10-16T23:04:01;13.90;99.90
21648;DHT22;10985;54.182;7.890;2022-10-16T23:06:27;13.90;99.90
21648;DHT22;10985;54.182;7.890;2022-10-16T23:08:55;13.90;99.90
21648;DHT22;10985;54.182;7.890;2022-10-16T23:11:21;13.80;99.90
21648;DHT22;10985;54.182;7.890;2022-10-16T23:13:47;13.90;99.90
21648;DHT22;10985;54.182;7.890;2022-10-16T23:16:14;13.80;99.90
21648;DHT22;10985;54.182;7.890;2022-10-16T23:18:41;13.80;99.90
21648;DHT22;10985;54.182;7.890;2022-10-16T23:21:12;13.80;99.90
21648;DHT22;10985;54.182;7.890;2022-10-16T23:23:38;13.80;99.90
21648;DHT22;10985;54.182;7.890;2022-10-16T23:26:19;13.80;99.90
21648;DHT22;10985;54.182;7.890;2022-10-16T23:28:45;13.80;99.90
21648;DHT22;10985;54.182;7.890;2022-10-16T23:31:12;13.80;99.90
21648;DHT22;10985;54.182;7.890;2022-10-16T23:33:38;13.70;99.90
21648;DHT22;10985;54.182;7.890;2022-10-16T23:36:06;13.80;99.90
21648;DHT22;10985;54.182;7.890;2022-10-16T23:38:32;13.70;99.90
21648;DHT22;10985;54.182;7.890;2022-10-16T23:40:57;13.70;99.90
21648;DHT22;10985;54.182;7.890;2022-10-16T23:43:23;13.70;99.90
21648;DHT22;10985;54.182;7.890;2022-10-16T23:45:48;13.70;99.90
21648;DHT22;10985;54.182;7.890;2022-10-16T23:48:14;13.70;99.90
21648;DHT22;10985;54.182;7.890;2022-10-16T23:50:39;13.70;99.90
21648;DHT22;10985;54.182;7.890;2022-10-16T23:53:05;13.60;99.90
21648;DHT22;10985;54.182;7.890;2022-10-16T23:55:31;13.60;99.90
21648;DHT22;10985;54.182;7.890;2022-10-16T23:57:56;13.60;99.90
